Time;durP1;ratioP1;P1;durP2;ratioP2;P2;SDS_P1;SDS_P2;PMS_P1;PMS_P2;Temp;Humidity;BMP_temperature;BMP_pressure;BME280_temperature;BME280_humidity;BME280_pressure;Samples;Min_cycle;Max_cycle;Signal;HPM_P1;HPM_P2
2023/01/31 00:00:01;;;;;;;;;;;;;;;5.72;100.00;100337.47;5056938;28;19920;-73
2023/01/31 00:02:26;;;;;;;;;;;;;;;5.60;100.00;100353.56;5073964;28;19954;-73
2023/01/31 00:04:52;;;;;;;;;;;;;;;5.62;100.00;100346.78;5073093;28;19985;-73
2023/01/31 00:07:17;;;;;;;;;;;;;;;6.16;100.00;100366.03;5054687;28;19951;-72
2023/01/31 00:09:42;;;;;;;;;;;;;;;5.44;100.00;100335.50;5076054;28;19923;-72
2023/01/31 00:12:07;;;;;;;;;;;;;;;5.34;100.00;100346.50;5073488;28;19932;-72
2023/01/31 00:14:33;;;;;;;;;;;;;;;5.33;100.00;100370.31;5073209;28;20007;-72
2023/01/31 00:16:58;;;;;;;;;;;;;;;5.75;100.00;100384.38;5074691;28;19959;-73
2023/01/31 00:19:23;;;;;;;;;;;;;;;5.64;100.00;100380.88;5073099;28;19946;-72
2023/01/31 00:21:49;;;;;;;;;;;;;;;5.80;98.26;100382.72;5071638;28;19920;-73
2023/01/31 00:24:14;;;;;;;;;;;;;;;5.72;100.00;100383.50;5072579;28;19916;-73
2023/01/31 00:26:39;;;;;;;;;;;;;;;5.48;100.00;100376.44;5053646;28;19920;-73
2023/01/31 00:29:05;;;;;;;;;;;;;;;5.58;97.94;100385.91;5055057;28;19999;-72
2023/01/31 00:31:31;;;;;;;;;;;;;;;5.98;95.56;100401.69;5055618;28;19917;-72
2023/01/31 00:33:56;;;;;;;;;;;;;;;5.83;98.76;100394.69;5056652;28;20014;-73
2023/01/31 00:36:22;;;;;;;;;;;;;;;5.68;97.79;100376.63;5056756;28;19920;-72
2023/01/31 00:38:51;;;;;;;;;;;;;;;5.52;96.14;100381.59;5048775;28;20361;-73
2023/01/31 00:41:20;;;;;;;;;;;;;;;5.43;95.40;100390.00;5051625;28;19919;-70
2023/01/31 00:43:46;;;;;;;;;;;;;;;5.33;93.63;100395.84;5072119;28;20405;-72
2023/01/31 00:46:11;;;;;;;;;;;;;;;5.39;93.02;100410.41;5070614;28;20025;-72
2023/01/31 00:48:36;;;;;;;;;;;;;;;5.30;89.27;100426.47;5055305;28;20294;-73
2023/01/31 00:51:01;;;;;;;;;;;;;;;5.11;89.94;100424.50;5072800;28;19973;-73
2023/01/31 00:53:27;;;;;;;;;;;;;;;5.44;87.64;100440.25;5071662;28;20019;-73
2023/01/31 00:55:52;;;;;;;;;;;;;;;5.36;89.45;100439.31;5055051;28;19916;-73
2023/01/31 00:58:18;;;;;;;;;;;;;;;5.53;88.42;100442.06;5053208;28;19927;-73
2023/01/31 01:00:43;;;;;;;;;;;;;;;5.77;88.89;100444.06;5055848;28;19946;-73
2023/01/31 01:03:08;;;;;;;;;;;;;;;5.66;92.09;100431.16;5053984;28;19916;-72
2023/01/31 01:05:34;;;;;;;;;;;;;;;5.31;95.19;100407.75;5074149;28;19916;-72
2023/01/31 01:07:59;;;;;;;;;;;;;;;5.73;92.44;100421.84;5073782;28;19961;-73
2023/01/31 01:10:24;;;;;;;;;;;;;;;5.83;94.38;100428.75;5071755;28;19942;-73
2023/01/31 01:12:49;;;;;;;;;;;;;;;5.75;97.80;100420.19;5056583;28;19974;-72
2023/01/31 01:15:14;;;;;;;;;;;;;;;5.75;100.00;100404.84;5069790;28;19916;-72
2023/01/31 01:17:40;;;;;;;;;;;;;;;5.81;100.00;100389.53;5074879;28;19931;-73
2023/01/31 01:20:05;;;;;;;;;;;;;;;5.38;100.00;100353.34;5052457;28;20355;-71
2023/01/31 01:22:32;;;;;;;;;;;;;;;5.76;100.00;100375.88;5071849;28;19923;-73
2023/01/31 01:24:57;;;;;;;;;;;;;;;5.79;100.00;100369.91;5055547;28;20691;-73
2023/01/31 01:27:22;;;;;;;;;;;;;;;5.87;100.00;100360.63;5073784;28;19927;-72
2023/01/31 01:29:48;;;;;;;;;;;;;;;6.23;100.00;100349.03;5074481;28;19967;-72
2023/01/31 01:32:13;;;;;;;;;;;;;;;5.99;100.00;100322.41;5071784;28;20396;-72
2023/01/31 01:34:38;;;;;;;;;;;;;;;5.67;100.00;100304.22;5073830;28;20013;-72
2023/01/31 01:37:10;;;;;;;;;;;;;;;6.12;100.00;100318.25;5056257;28;20008;-72
2023/01/31 01:39:35;;;;;;;;;;;;;;;6.24;100.00;100318.31;5056644;28;19931;-72
2023/01/31 01:42:00;;;;;;;;;;;;;;;5.83;100.00;100306.06;5054406;28;19920;-71
2023/01/31 01:44:41;;;;;;;;;;;;;;;6.27;100.00;100310.69;5054866;28;19922;-73
2023/01/31 01:47:14;;;;;;;;;;;;;;;6.10;100.00;100296.91;5072037;28;20049;-71
2023/01/31 01:49:39;;;;;;;;;;;;;;;5.94;100.00;100292.50;5053055;28;19959;-72
2023/01/31 01:52:05;;;;;;;;;;;;;;;5.87;100.00;100282.22;5072404;28;19969;-73
2023/01/31 01:54:33;;;;;;;;;;;;;;;5.96;100.00;100285.75;5053500;28;19916;-73
2023/01/31 01:56:59;;;;;;;;;;;;;;;5.84;100.00;100282.22;5070593;28;19927;-72
2023/01/31 01:59:33;;;;;;;;;;;;;;;5.92;100.00;100279.72;5055423;28;19912;-72
2023/01/31 02:01:58;;;;;;;;;;;;;;;5.77;100.00;100279.56;5046771;28;19927;-73
2023/01/31 02:04:25;;;;;;;;;;;;;;;6.09;100.00;100282.44;5053679;28;19916;-73
2023/01/31 02:06:50;;;;;;;;;;;;;;;6.08;100.00;100288.38;5074010;28;19920;-73
2023/01/31 02:09:29;;;;;;;;;;;;;;;6.21;100.00;100282.50;5054604;28;19920;-73
2023/01/31 02:11:54;;;;;;;;;;;;;;;6.33;100.00;100283.44;5074889;28;19925;-72
2023/01/31 02:14:19;;;;;;;;;;;;;;;5.94;100.00;100262.72;5069495;28;19950;-73
2023/01/31 02:16:45;;;;;;;;;;;;;;;5.99;100.00;100261.03;5054219;28;20031;-73
2023/01/31 02:19:13;;;;;;;;;;;;;;;6.15;100.00;100253.47;5072756;28;19964;-73
2023/01/31 02:21:57;;;;;;;;;;;;;;;6.39;100.00;100252.78;5054400;28;19969;-72
2023/01/31 02:24:29;;;;;;;;;;;;;;;6.25;100.00;100227.97;5069986;28;19989;-72
2023/01/31 02:26:57;;;;;;;;;;;;;;;6.33;100.00;100219.47;5053086;28;19963;-73
2023/01/31 02:29:34;;;;;;;;;;;;;;;6.14;100.00;100191.25;5070035;28;19939;-73
2023/01/31 02:32:16;;;;;;;;;;;;;;;6.26;100.00;100188.72;5072810;28;20435;-73
2023/01/31 02:34:48;;;;;;;;;;;;;;;6.66;100.00;100188.91;5052627;28;20028;-73
2023/01/31 02:37:22;;;;;;;;;;;;;;;6.48;100.00;100170.94;5052168;28;20444;-73
2023/01/31 02:40:02;;;;;;;;;;;;;;;6.63;100.00;100178.63;5052920;28;19925;-73
2023/01/31 02:42:34;;;;;;;;;;;;;;;6.72;100.00;100182.06;5072023;28;20457;-73
2023/01/31 02:45:09;;;;;;;;;;;;;;;6.41;100.00;100171.72;5053878;28;19981;-73
2023/01/31 02:47:44;;;;;;;;;;;;;;;6.08;100.00;100165.63;5048242;28;20514;-73
2023/01/31 02:50:13;;;;;;;;;;;;;;;6.37;100.00;100185.38;5070561;28;19958;-73
2023/01/31 02:52:52;;;;;;;;;;;;;;;6.10;100.00;100176.72;5071553;28;19963;-73
2023/01/31 02:58:06;;;;;;;;;;;;;;;6.54;100.00;100204.19;5056460;28;19927;-73
2023/01/31 03:00:31;;;;;;;;;;;;;;;5.64;100.00;100176.41;5051947;28;20290;-73
2023/01/31 03:02:56;;;;;;;;;;;;;;;5.85;100.00;100180.81;5052186;28;19917;-73
2023/01/31 03:05:22;;;;;;;;;;;;;;;6.62;100.00;100212.75;5051030;28;19917;-72
2023/01/31 03:07:58;;;;;;;;;;;;;;;5.96;100.00;100179.22;5070508;28;20451;-73
2023/01/31 03:10:24;;;;;;;;;;;;;;;6.71;100.00;100204.28;5051368;28;19924;-73
2023/01/31 03:12:50;;;;;;;;;;;;;;;5.82;100.00;100166.31;5071458;28;19920;-73
2023/01/31 03:18:53;;;;;;;;;;;;;;;5.77;100.00;100201.22;5070223;28;19931;-72
2023/01/31 03:21:20;;;;;;;;;;;;;;;6.11;100.00;100204.00;5008738;28;20389;-73
2023/01/31 03:23:47;;;;;;;;;;;;;;;5.91;100.00;100208.09;5051092;28;19924;-72
2023/01/31 03:26:12;;;;;;;;;;;;;;;6.27;100.00;100208.38;5053857;28;19935;-73
2023/01/31 03:28:40;;;;;;;;;;;;;;;6.73;100.00;100205.13;5073670;28;20248;-73
2023/01/31 03:31:15;;;;;;;;;;;;;;;6.75;100.00;100193.19;5058243;28;19968;-72
2023/01/31 03:33:42;;;;;;;;;;;;;;;5.98;100.00;100156.22;5076407;28;19923;-73
2023/01/31 03:36:24;;;;;;;;;;;;;;;6.42;100.00;100163.22;5073515;28;19919;-72
2023/01/31 03:38:52;;;;;;;;;;;;;;;6.37;100.00;100149.56;5073587;28;19962;-73
2023/01/31 03:41:25;;;;;;;;;;;;;;;7.02;100.00;100171.88;5072156;28;19964;-73
2023/01/31 03:44:08;;;;;;;;;;;;;;;6.74;100.00;100131.75;5056313;28;19916;-72
2023/01/31 03:46:34;;;;;;;;;;;;;;;6.91;100.00;100119.78;5056289;28;19928;-71
2023/01/31 03:48:59;;;;;;;;;;;;;;;7.27;100.00;100111.25;5056642;28;19924;-72
2023/01/31 03:51:26;;;;;;;;;;;;;;;7.04;100.00;100083.09;5054735;28;20605;-73
2023/01/31 03:53:52;;;;;;;;;;;;;;;6.61;100.00;100052.34;5058135;28;20011;-73
2023/01/31 03:56:23;;;;;;;;;;;;;;;6.61;100.00;100052.34;5055950;28;19940;-73
2023/01/31 03:58:50;;;;;;;;;;;;;;;7.29;100.00;100042.09;5056182;28;19921;-72
2023/01/31 04:01:16;;;;;;;;;;;;;;;6.74;100.00;100012.25;5054171;28;19946;-72
2023/01/31 04:03:42;;;;;;;;;;;;;;;7.06;100.00;100027.59;5058365;28;19920;-73
2023/01/31 04:06:08;;;;;;;;;;;;;;;7.25;100.00;100025.00;5039128;28;20420;-73
2023/01/31 04:08:33;;;;;;;;;;;;;;;6.57;100.00;99996.91;5054259;28;20013;-73
2023/01/31 04:10:58;;;;;;;;;;;;;;;6.31;100.00;99991.75;5055580;28;19924;-73
2023/01/31 04:13:24;;;;;;;;;;;;;;;6.39;100.00;100009.69;5057989;28;20018;-72
2023/01/31 04:15:49;;;;;;;;;;;;;;;6.88;100.00;100019.94;5054205;28;19916;-73
2023/01/31 04:18:14;;;;;;;;;;;;;;;6.68;100.00;100018.25;5057367;28;19916;-73
2023/01/31 04:20:39;;;;;;;;;;;;;;;6.85;100.00;100014.84;5075635;28;19921;-73
2023/01/31 04:23:05;;;;;;;;;;;;;;;6.43;100.00;99994.34;5075953;28;19922;-72
2023/01/31 04:25:30;;;;;;;;;;;;;;;6.88;100.00;100012.25;5071185;28;20007;-73
2023/01/31 04:27:55;;;;;;;;;;;;;;;6.34;100.00;100001.16;5073140;28;19923;-73
2023/01/31 04:30:20;;;;;;;;;;;;;;;6.93;100.00;100007.97;5053882;28;19920;-73
2023/01/31 04:32:46;;;;;;;;;;;;;;;5.83;100.00;99971.19;5072619;28;20016;-73
2023/01/31 04:35:11;;;;;;;;;;;;;;;6.85;100.00;100002.88;5056616;28;19917;-76
2023/01/31 04:37:36;;;;;;;;;;;;;;;6.51;100.00;99988.38;5061663;28;19923;-75
2023/01/31 04:40:01;;;;;;;;;;;;;;;6.63;100.00;99984.09;5076216;28;19923;-75
2023/01/31 04:42:27;;;;;;;;;;;;;;;6.94;100.00;99978.97;5059621;28;20150;-73
2023/01/31 04:44:52;;;;;;;;;;;;;;;6.74;100.00;99962.78;5083299;28;20410;-74
2023/01/31 04:47:17;;;;;;;;;;;;;;;6.94;100.00;99963.59;5074572;28;19920;-75
2023/01/31 04:49:43;;;;;;;;;;;;;;;6.34;100.00;99924.41;5084335;28;19919;-75
2023/01/31 04:52:09;;;;;;;;;;;;;;;6.99;100.00;99951.63;5063024;28;19967;-74
2023/01/31 04:54:35;;;;;;;;;;;;;;;6.45;100.00;99938.03;5078964;28;19913;-76
2023/01/31 04:57:00;;;;;;;;;;;;;;;6.42;100.00;99944.00;5074382;28;19926;-76
2023/01/31 04:59:26;;;;;;;;;;;;;;;7.12;100.00;99958.44;5056173;28;19920;-76
2023/01/31 05:01:51;;;;;;;;;;;;;;;6.57;100.00;99927.81;5073981;28;19913;-76
2023/01/31 05:04:16;;;;;;;;;;;;;;;6.82;100.00;99933.75;5058509;28;19916;-76
2023/01/31 05:06:41;;;;;;;;;;;;;;;6.80;100.00;99924.38;5075736;28;19946;-76
2023/01/31 05:09:07;;;;;;;;;;;;;;;6.72;100.00;99928.66;5076491;28;20154;-75
2023/01/31 05:11:32;;;;;;;;;;;;;;;6.85;100.00;99922.66;5056839;28;20000;-75
2023/01/31 05:13:57;;;;;;;;;;;;;;;6.66;100.00;99897.09;5075734;28;19920;-76
2023/01/31 05:16:22;;;;;;;;;;;;;;;7.04;100.00;99914.06;5072199;28;19943;-74
2023/01/31 05:18:49;;;;;;;;;;;;;;;7.26;100.00;99903.75;5052887;28;19977;-74
2023/01/31 05:21:14;;;;;;;;;;;;;;;6.38;100.00;99887.72;5053255;28;19928;-74
2023/01/31 05:23:40;;;;;;;;;;;;;;;6.78;100.00;99900.50;5053229;28;20461;-74
2023/01/31 05:26:05;;;;;;;;;;;;;;;6.70;100.00;99903.03;5049534;28;19926;-74
2023/01/31 05:28:30;;;;;;;;;;;;;;;6.99;100.00;99900.41;5067695;28;19916;-74
2023/01/31 05:31:00;;;;;;;;;;;;;;;6.97;100.00;99894.44;5072107;28;19920;-75
2023/01/31 05:33:26;;;;;;;;;;;;;;;6.84;100.00;99879.97;5051539;28;20291;-74
2023/01/31 05:35:51;;;;;;;;;;;;;;;6.77;100.00;99870.59;5070848;28;19931;-74
2023/01/31 05:38:17;;;;;;;;;;;;;;;6.23;100.00;99855.34;5050300;28;19961;-74
2023/01/31 05:40:42;;;;;;;;;;;;;;;6.89;100.00;99878.28;5052496;28;20112;-74
2023/01/31 05:43:07;;;;;;;;;;;;;;;7.16;100.00;99881.56;5070618;28;19921;-74
2023/01/31 05:45:33;;;;;;;;;;;;;;;6.68;100.00;99869.78;5052748;28;20290;-74
2023/01/31 05:47:58;;;;;;;;;;;;;;;6.47;100.00;99864.69;5053111;28;20026;-74
2023/01/31 05:50:23;;;;;;;;;;;;;;;6.40;100.00;99871.53;5068479;28;20022;-75
2023/01/31 05:52:52;;;;;;;;;;;;;;;6.57;100.00;99881.75;5070107;28;19917;-74
2023/01/31 05:55:18;;;;;;;;;;;;;;;6.96;100.00;99881.66;5050519;28;19924;-74
2023/01/31 05:57:43;;;;;;;;;;;;;;;5.95;100.00;99865.56;5070672;28;19916;-75
2023/01/31 06:00:08;;;;;;;;;;;;;;;6.53;100.00;99880.03;5068375;28;19916;-74
2023/01/31 06:02:34;;;;;;;;;;;;;;;6.46;100.00;99874.09;5069509;28;20441;-75
2023/01/31 06:04:59;;;;;;;;;;;;;;;6.57;100.00;99876.63;5070054;28;20048;-74
2023/01/31 06:07:24;;;;;;;;;;;;;;;6.51;100.00;99888.59;5071605;28;19916;-74
2023/01/31 06:09:49;;;;;;;;;;;;;;;6.64;100.00;99903.06;5069118;28;20798;-75
2023/01/31 06:12:15;;;;;;;;;;;;;;;6.32;100.00;99890.28;5049212;28;19921;-75
2023/01/31 06:14:40;;;;;;;;;;;;;;;6.51;100.00;99892.00;5067963;28;20065;-74
2023/01/31 06:17:05;;;;;;;;;;;;;;;6.72;100.00;99910.72;5050449;28;20030;-74
2023/01/31 06:19:30;;;;;;;;;;;;;;;7.24;100.00;99921.69;5052304;28;19924;-74
2023/01/31 06:21:56;;;;;;;;;;;;;;;7.11;100.00;99899.53;5071409;28;20346;-73
2023/01/31 06:24:21;;;;;;;;;;;;;;;6.56;100.00;99885.16;5075173;28;19912;-75
2023/01/31 06:26:46;;;;;;;;;;;;;;;6.80;100.00;99884.25;5074183;28;19917;-73
2023/01/31 06:29:11;;;;;;;;;;;;;;;6.54;100.00;99880.91;5074294;28;20400;-74
2023/01/31 06:31:37;;;;;;;;;;;;;;;6.53;100.00;99895.41;5070787;28;20446;-74
2023/01/31 06:34:02;;;;;;;;;;;;;;;7.05;100.00;99915.78;5073420;28;20359;-73
2023/01/31 06:36:27;;;;;;;;;;;;;;;6.09;100.00;99878.38;5072403;28;20844;-73
2023/01/31 06:38:53;;;;;;;;;;;;;;;6.43;100.00;99901.38;5055579;28;19920;-73
2023/01/31 06:41:18;;;;;;;;;;;;;;;6.78;100.00;99920.97;5075064;28;19950;-74
2023/01/31 06:43:44;;;;;;;;;;;;;;;7.25;100.00;99930.22;5056297;28;20457;-73
2023/01/31 06:46:09;;;;;;;;;;;;;;;6.44;100.00;99897.97;5072452;28;20964;-72
2023/01/31 06:48:34;;;;;;;;;;;;;;;6.92;100.00;99916.66;5071988;28;19920;-73
2023/01/31 06:50:59;;;;;;;;;;;;;;;6.68;100.00;99908.19;5074560;28;19920;-73
2023/01/31 06:53:25;;;;;;;;;;;;;;;6.67;100.00;99908.19;5072493;28;19928;-73
2023/01/31 06:55:50;;;;;;;;;;;;;;;7.09;100.00;99925.16;5074050;28;19916;-73
2023/01/31 06:58:15;;;;;;;;;;;;;;;6.37;100.00;99898.84;5074535;28;19916;-73
2023/01/31 07:00:40;;;;;;;;;;;;;;;6.61;100.00;99914.13;5075332;28;19928;-72
2023/01/31 07:03:05;;;;;;;;;;;;;;;6.75;100.00;99926.06;5072896;28;20011;-73
2023/01/31 07:05:31;;;;;;;;;;;;;;;7.21;100.00;99929.38;5074407;28;20422;-73
2023/01/31 07:07:56;;;;;;;;;;;;;;;6.98;100.00;99918.34;5054442;28;20407;-75
2023/01/31 07:10:21;;;;;;;;;;;;;;;6.13;100.00;99884.31;5072770;28;19942;-73
2023/01/31 07:12:46;;;;;;;;;;;;;;;6.28;100.00;99890.28;5072699;28;20936;-72
2023/01/31 07:15:12;;;;;;;;;;;;;;;6.62;100.00;99915.88;5072197;28;20258;-72
2023/01/31 07:17:37;;;;;;;;;;;;;;;6.40;100.00;99904.78;5052853;28;20046;-74
2023/01/31 07:20:03;;;;;;;;;;;;;;;6.99;100.00;99926.03;5051360;28;19923;-76
2023/01/31 07:22:28;;;;;;;;;;;;;;;6.58;100.00;99903.91;5068579;28;19921;-75
2023/01/31 07:24:53;;;;;;;;;;;;;;;6.72;100.00;99919.25;5068217;28;20401;-76
2023/01/31 07:27:18;;;;;;;;;;;;;;;6.76;100.00;99905.59;5068525;28;19920;-76
2023/01/31 07:29:44;;;;;;;;;;;;;;;6.35;100.00;99903.94;5068655;28;19920;-75
2023/01/31 07:32:09;;;;;;;;;;;;;;;6.89;100.00;99924.38;5069546;28;19967;-75
2023/01/31 07:34:34;;;;;;;;;;;;;;;6.78;100.00;99928.66;5053935;28;19921;-76
2023/01/31 07:37:00;;;;;;;;;;;;;;;6.97;100.00;99926.88;5070162;28;19924;-76
2023/01/31 07:39:25;;;;;;;;;;;;;;;6.47;100.00;99916.72;5070217;28;19939;-76
2023/01/31 07:41:50;;;;;;;;;;;;;;;6.27;100.00;99903.06;5069305;28;19922;-76
2023/01/31 07:44:15;;;;;;;;;;;;;;;6.78;100.00;99928.66;5052818;28;21080;-76
2023/01/31 07:46:41;;;;;;;;;;;;;;;6.86;100.00;99926.91;5067924;28;19920;-75
2023/01/31 07:49:08;;;;;;;;;;;;;;;6.44;100.00;99910.75;5066746;28;19945;-76
2023/01/31 07:51:34;;;;;;;;;;;;;;;6.21;100.00;99903.94;5069643;28;20003;-74
2023/01/31 07:54:00;;;;;;;;;;;;;;;6.89;100.00;99924.38;5053220;28;19916;-74
2023/01/31 07:56:25;;;;;;;;;;;;;;;6.33;100.00;99913.31;5052783;28;20514;-74
2023/01/31 07:58:50;;;;;;;;;;;;;;;6.63;100.00;99925.22;5067538;28;20355;-76
2023/01/31 08:04:04;;;;;;;;;;;;;;;7.24;100.00;99938.78;5054236;28;19924;-76
2023/01/31 08:06:30;;;;;;;;;;;;;;;6.99;100.00;99918.34;5069963;28;19923;-76
2023/01/31 08:08:55;;;;;;;;;;;;;;;6.84;100.00;99928.63;5052180;28;20488;-75
2023/01/31 08:11:21;;;;;;;;;;;;;;;6.76;100.00;99923.53;5050385;28;20378;-75
2023/01/31 08:13:46;;;;;;;;;;;;;;;6.33;100.00;99912.47;5054429;28;19927;-75
2023/01/31 08:16:11;;;;;;;;;;;;;;;7.10;100.00;99934.53;5055519;28;20006;-75
2023/01/31 08:18:37;;;;;;;;;;;;;;;7.29;100.00;99925.06;5072234;28;19916;-75
2023/01/31 08:21:02;;;;;;;;;;;;;;;6.34;100.00;99893.69;5054935;28;19959;-75
2023/01/31 08:23:28;;;;;;;;;;;;;;;6.60;100.00;99911.59;5047589;28;19920;-76
2023/01/31 08:26:01;;;;;;;;;;;;;;;6.62;100.00;99895.38;5052845;28;19966;-74
2023/01/31 08:28:26;;;;;;;;;;;;;;;7.00;100.00;99912.38;5072998;28;19916;-75
2023/01/31 08:30:51;;;;;;;;;;;;;;;6.61;100.00;99903.91;5050438;28;19981;-76
2023/01/31 08:33:16;;;;;;;;;;;;;;;6.85;100.00;99892.78;5074048;28;19926;-74
2023/01/31 08:35:41;;;;;;;;;;;;;;;7.03;100.00;99894.44;5055864;28;20004;-74
2023/01/31 08:38:07;;;;;;;;;;;;;;;7.01;100.00;99887.63;5052949;28;19955;-74
2023/01/31 08:40:32;;;;;;;;;;;;;;;7.47;100.00;99900.22;5072859;28;19920;-74
2023/01/31 08:42:59;;;;;;;;;;;;;;;6.85;100.00;99886.81;5072521;28;19938;-75
2023/01/31 08:45:24;;;;;;;;;;;;;;;7.03;100.00;99886.75;5070264;28;19970;-75
2023/01/31 08:47:56;;;;;;;;;;;;;;;6.60;100.00;99876.63;5071967;28;20313;-74
2023/01/31 08:50:23;;;;;;;;;;;;;;;7.07;100.00;99880.78;5071698;28;19917;-74
2023/01/31 08:52:55;;;;;;;;;;;;;;;6.79;100.00;99861.22;5054666;28;20308;-75
2023/01/31 08:55:21;;;;;;;;;;;;;;;7.07;100.00;99867.97;5052254;28;19958;-75
2023/01/31 08:57:47;;;;;;;;;;;;;;;7.19;100.00;99866.22;5052155;28;20424;-74
2023/01/31 09:00:12;;;;;;;;;;;;;;;7.52;100.00;99858.31;5071533;28;19916;-75
2023/01/31 09:02:38;;;;;;;;;;;;;;;6.96;100.00;99838.97;5052417;28;19924;-75
2023/01/31 09:05:04;;;;;;;;;;;;;;;7.75;100.00;99847.06;5075519;28;19970;-75
2023/01/31 09:07:29;;;;;;;;;;;;;;;7.12;100.00;99825.25;5071678;28;19920;-74
2023/01/31 09:09:54;;;;;;;;;;;;;;;7.17;100.00;99824.38;5054412;28;19954;-75
2023/01/31 09:12:19;;;;;;;;;;;;;;;7.06;100.00;99847.47;5071092;28;19978;-75
2023/01/31 09:14:44;;;;;;;;;;;;;;;7.37;100.00;99855.88;5068658;28;19916;-75
2023/01/31 09:17:10;;;;;;;;;;;;;;;6.96;100.00;99850.94;5071914;28;19958;-74
2023/01/31 09:19:35;;;;;;;;;;;;;;;6.72;100.00;99857.81;5070440;28;19916;-75
2023/01/31 09:22:01;;;;;;;;;;;;;;;7.17;100.00;99873.88;5073690;28;20011;-75
2023/01/31 09:24:26;;;;;;;;;;;;;;;6.63;100.00;99861.25;5069252;28;19916;-74
2023/01/31 09:26:53;;;;;;;;;;;;;;;6.33;100.00;99869.81;5053863;28;19912;-76
2023/01/31 09:29:18;;;;;;;;;;;;;;;7.26;100.00;99919.13;5055196;28;20620;-75
2023/01/31 09:31:43;;;;;;;;;;;;;;;6.47;100.00;99919.28;5075875;28;19931;-76
2023/01/31 09:34:08;;;;;;;;;;;;;;;5.98;100.00;99915.88;5056280;28;19994;-76
2023/01/31 09:36:34;;;;;;;;;;;;;;;6.33;100.00;99940.63;5071212;28;19962;-76
2023/01/31 09:38:59;;;;;;;;;;;;;;;6.55;100.00;99960.22;5050118;28;20400;-74
2023/01/31 09:41:33;;;;;;;;;;;;;;;6.14;100.00;99970.44;5053744;28;19924;-76
2023/01/31 09:44:01;;;;;;;;;;;;;;;6.87;100.00;100018.25;5070419;28;20333;-75
2023/01/31 09:46:28;;;;;;;;;;;;;;;6.06;100.00;100001.09;5052224;28;19922;-76
2023/01/31 09:48:54;;;;;;;;;;;;;;;6.18;100.00;100028.41;5052704;28;19973;-76
2023/01/31 09:51:19;;;;;;;;;;;;;;;6.85;100.00;100061.75;5068604;28;19932;-76
2023/01/31 09:53:44;;;;;;;;;;;;;;;6.91;99.38;100054.09;5050517;28;20333;-75
2023/01/31 09:56:18;;;;;;;;;;;;;;;6.21;100.00;100049.75;5052871;28;20360;-75
2023/01/31 09:59:02;;;;;;;;;;;;;;;6.23;98.53;100058.28;5069953;28;19965;-75
2023/01/31 10:01:37;;;;;;;;;;;;;;;7.28;93.24;100102.72;5069208;28;19962;-74
2023/01/31 10:04:18;;;;;;;;;;;;;;;6.41;100.00;100065.13;5051639;28;20354;-74
2023/01/31 10:06:57;;;;;;;;;;;;;;;7.10;97.72;100083.09;5070317;28;19967;-75
2023/01/31 10:09:26;;;;;;;;;;;;;;;6.91;100.00;100055.78;5052474;28;19951;-75
2023/01/31 10:11:53;;;;;;;;;;;;;;;6.59;100.00;100037.84;5054768;28;19924;-75
2023/01/31 10:14:38;;;;;;;;;;;;;;;6.94;100.00;100043.00;5045863;28;20137;-76
2023/01/31 10:17:03;;;;;;;;;;;;;;;6.98;100.00;100038.69;5072258;28;19913;-76
2023/01/31 10:19:30;;;;;;;;;;;;;;;6.40;100.00;100019.91;5070643;28;19920;-75
2023/01/31 10:21:56;;;;;;;;;;;;;;;7.12;100.00;100040.41;5052447;28;19920;-75
2023/01/31 10:24:22;;;;;;;;;;;;;;;7.02;100.00;100027.59;5056045;28;20390;-75
2023/01/31 10:26:48;;;;;;;;;;;;;;;7.04;100.00;100020.78;5071153;28;19922;-75
2023/01/31 10:29:19;;;;;;;;;;;;;;;6.85;100.00;100015.69;5052407;28;19916;-75
2023/01/31 10:31:48;;;;;;;;;;;;;;;6.63;100.00;100006.28;5052653;28;19916;-76
2023/01/31 10:34:19;;;;;;;;;;;;;;;6.67;100.00;100029.31;5054170;28;19921;-76
2023/01/31 10:36:53;;;;;;;;;;;;;;;7.63;99.12;100062.50;5074861;28;19916;-75
2023/01/31 10:39:23;;;;;;;;;;;;;;;6.76;100.00;100030.19;5070840;28;20713;-76
2023/01/31 10:42:01;;;;;;;;;;;;;;;7.00;99.87;100024.19;5053210;28;19971;-76
2023/01/31 10:44:39;;;;;;;;;;;;;;;7.13;100.00;100031.84;5069607;28;19915;-76
2023/01/31 10:47:09;;;;;;;;;;;;;;;6.75;100.00;100002.88;5053489;28;19917;-76
2023/01/31 10:49:34;;;;;;;;;;;;;;;6.58;100.00;100003.72;5047188;28;19915;-76
2023/01/31 10:52:05;;;;;;;;;;;;;;;6.65;97.32;100028.47;5048131;28;19965;-76
2023/01/31 10:54:33;;;;;;;;;;;;;;;6.85;93.50;100027.63;5052887;28;19917;-76
2023/01/31 10:56:59;;;;;;;;;;;;;;;7.02;90.78;100037.84;5074978;28;19926;-76
2023/01/31 10:59:25;;;;;;;;;;;;;;;6.98;92.71;100041.25;5054657;28;20368;-77
2023/01/31 11:01:50;;;;;;;;;;;;;;;6.56;96.01;100000.31;5050535;28;19916;-76
2023/01/31 11:04:23;;;;;;;;;;;;;;;6.27;93.69;99992.59;5054689;28;19916;-76
2023/01/31 11:06:48;;;;;;;;;;;;;;;6.97;88.42;100009.69;5056222;28;20041;-76
2023/01/31 11:09:14;;;;;;;;;;;;;;;7.06;87.19;100014.78;5052051;28;19921;-76
2023/01/31 11:11:51;;;;;;;;;;;;;;;6.85;90.20;100012.28;5071699;28;19924;-76
2023/01/31 11:14:17;;;;;;;;;;;;;;;7.32;89.18;100026.69;5070805;28;19931;-76
2023/01/31 11:16:42;;;;;;;;;;;;;;;7.31;91.03;100019.88;5054305;28;19912;-76
2023/01/31 11:19:19;;;;;;;;;;;;;;;7.54;91.64;100010.41;5056147;28;19924;-77
2023/01/31 11:21:49;;;;;;;;;;;;;;;7.11;91.93;100012.22;5056766;28;20017;-77
2023/01/31 11:24:16;;;;;;;;;;;;;;;6.82;94.06;99978.97;5041252;28;20031;-76
2023/01/31 11:26:42;;;;;;;;;;;;;;;6.97;91.53;100002.00;5055397;28;20014;-77
2023/01/31 11:29:09;;;;;;;;;;;;;;;7.39;90.75;100004.47;5060860;28;19923;-76
2023/01/31 11:31:36;;;;;;;;;;;;;;;7.10;92.36;100001.13;5059453;28;20416;-76
2023/01/31 11:34:02;;;;;;;;;;;;;;;7.01;91.15;99996.03;5056766;28;20271;-77
2023/01/31 11:36:32;;;;;;;;;;;;;;;7.27;88.43;100013.91;5055253;28;20402;-76
2023/01/31 11:38:57;;;;;;;;;;;;;;;7.71;87.32;100024.91;5056754;28;19921;-76
2023/01/31 11:41:27;;;;;;;;;;;;;;;7.28;92.61;100005.38;5055270;28;19916;-77
2023/01/31 11:44:05;;;;;;;;;;;;;;;7.45;90.66;100004.47;5049293;28;20364;-73
2023/01/31 11:46:40;;;;;;;;;;;;;;;7.17;92.69;99990.88;5069872;28;19981;-73
2023/01/31 11:49:09;;;;;;;;;;;;;;;7.63;87.45;100011.25;5053525;28;20006;-73
2023/01/31 11:51:34;;;;;;;;;;;;;;;7.21;91.57;99983.19;5055831;28;19924;-73
2023/01/31 11:54:00;;;;;;;;;;;;;;;7.17;92.06;99983.19;5056088;28;19916;-74
2023/01/31 11:56:26;;;;;;;;;;;;;;;7.71;90.91;99976.19;5055338;28;19920;-74
2023/01/31 11:58:52;;;;;;;;;;;;;;;7.59;90.76;99989.03;5054516;28;19916;-74
2023/01/31 12:01:19;;;;;;;;;;;;;;;7.92;91.76;99993.16;5052121;28;19917;-73
2023/01/31 12:03:48;;;;;;;;;;;;;;;7.61;94.34;99970.22;5053914;28;20906;-73
2023/01/31 12:06:25;;;;;;;;;;;;;;;7.88;95.64;99971.81;5055626;28;19997;-73
2023/01/31 12:08:54;;;;;;;;;;;;;;;7.39;100.00;99941.28;5054036;28;20008;-74
2023/01/31 12:11:19;;;;;;;;;;;;;;;7.07;100.00;99921.75;5055259;28;20359;-73
2023/01/31 12:13:46;;;;;;;;;;;;;;;7.84;98.73;99962.41;5072604;28;19927;-74
2023/01/31 12:16:11;;;;;;;;;;;;;;;7.96;97.33;99946.97;5053618;28;19920;-73
2023/01/31 12:18:55;;;;;;;;;;;;;;;8.12;99.79;99934.06;5055668;28;20587;-73
2023/01/31 12:21:30;;;;;;;;;;;;;;;7.71;100.00;99906.97;5071827;28;20294;-74
2023/01/31 12:24:01;;;;;;;;;;;;;;;7.60;100.00;99898.47;5074133;28;19920;-73
2023/01/31 12:26:44;;;;;;;;;;;;;;;7.85;99.18;99915.41;5071706;28;19972;-74
2023/01/31 12:29:28;;;;;;;;;;;;;;;7.80;100.00;99914.59;5071360;28;20498;-74
2023/01/31 12:32:14;;;;;;;;;;;;;;;7.27;100.00;99892.63;5072059;28;19927;-73
2023/01/31 12:34:39;;;;;;;;;;;;;;;7.66;95.59;99926.63;5071708;28;19916;-73
2023/01/31 12:37:11;;;;;;;;;;;;;;;7.21;94.47;99920.84;5074219;28;19920;-73
2023/01/31 12:39:39;;;;;;;;;;;;;;;7.87;94.26;99933.38;5053460;28;20289;-73
2023/01/31 12:42:16;;;;;;;;;;;;;;;7.74;96.52;99912.91;5073914;28;19964;-73
2023/01/31 12:44:48;;;;;;;;;;;;;;;7.43;100.00;99881.44;5071208;28;19927;-71
2023/01/31 12:47:14;;;;;;;;;;;;;;;7.58;97.57;99895.06;5054381;28;19920;-72
2023/01/31 12:49:58;;;;;;;;;;;;;;;7.74;95.04;99892.38;5072784;28;20462;-71
2023/01/31 12:52:39;;;;;;;;;;;;;;;7.77;91.62;99909.47;5070198;28;19924;-73